createdAt,value
2022-10-03T00:00:37.177Z,971.30
2022-10-03T00:01:37.636Z,971.31
2022-10-03T00:02:37.240Z,971.27
2022-10-03T00:03:37.111Z,971.33
2022-10-03T00:04:37.119Z,971.31
2022-10-03T00:05:37.115Z,971.28
2022-10-03T00:06:37.108Z,971.36
2022-10-03T00:07:37.090Z,971.31
2022-10-03T00:08:37.102Z,971.36
2022-10-03T00:09:37.046Z,971.40
2022-10-03T00:10:37.051Z,971.35
2022-10-03T00:11:37.178Z,971.38
2022-10-03T00:12:37.016Z,971.46
2022-10-03T00:13:37.024Z,971.42
2022-10-03T00:14:37.020Z,971.46
2022-10-03T00:15:37.077Z,971.43
2022-10-03T00:16:36.988Z,971.42
2022-10-03T00:17:36.954Z,971.45
2022-10-03T00:18:36.987Z,971.44
2022-10-03T00:19:36.957Z,971.48
2022-10-03T00:20:36.966Z,971.49
2022-10-03T00:21:37.330Z,971.49
2022-10-03T00:22:36.994Z,971.51
2022-10-03T00:23:36.885Z,971.51
2022-10-03T00:24:36.912Z,971.56
2022-10-03T00:25:36.886Z,971.63
2022-10-03T00:26:36.861Z,971.62
2022-10-03T00:27:36.848Z,971.66
2022-10-03T00:28:36.853Z,971.68
2022-10-03T00:29:36.837Z,971.71
2022-10-03T00:30:36.834Z,971.71
2022-10-03T00:31:37.275Z,971.69
2022-10-03T00:32:36.796Z,971.69
2022-10-03T00:33:36.787Z,971.74
2022-10-03T00:34:36.766Z,971.74
2022-10-03T00:35:36.799Z,971.77
2022-10-03T00:36:36.771Z,971.75
2022-10-03T00:37:36.732Z,971.80
2022-10-03T00:38:36.725Z,971.74
2022-10-03T00:39:36.728Z,971.73
2022-10-03T00:40:36.758Z,971.74
2022-10-03T00:41:37.189Z,971.71
2022-10-03T00:42:36.711Z,971.78
2022-10-03T00:43:36.661Z,971.80
2022-10-03T00:44:36.670Z,971.76
2022-10-03T00:45:36.748Z,971.81
2022-10-03T00:46:36.672Z,971.77
2022-10-03T00:47:36.642Z,971.81
2022-10-03T00:48:36.649Z,971.81
2022-10-03T00:49:36.594Z,971.80
2022-10-03T00:50:36.821Z,971.83
2022-10-03T00:51:36.882Z,971.86
2022-10-03T00:52:36.574Z,971.79
2022-10-03T00:53:36.569Z,971.81
2022-10-03T00:54:36.539Z,971.78
2022-10-03T00:55:36.526Z,971.87
2022-10-03T00:56:36.572Z,971.79
2022-10-03T00:57:36.546Z,971.80
2022-10-03T00:58:36.516Z,971.91
2022-10-03T00:59:36.482Z,971.85
2022-10-03T01:00:36.504Z,971.84
2022-10-03T01:01:36.712Z,971.87
2022-10-03T01:02:36.589Z,971.89
2022-10-03T01:03:36.484Z,971.93
2022-10-03T01:04:36.457Z,971.87
2022-10-03T01:05:36.431Z,971.92
2022-10-03T01:06:36.404Z,971.87
2022-10-03T01:07:36.418Z,971.88
2022-10-03T01:08:36.417Z,971.85
2022-10-03T01:09:36.488Z,971.86
2022-10-03T01:10:36.379Z,971.95
2022-10-03T01:11:36.907Z,971.90
2022-10-03T01:12:36.444Z,971.93
2022-10-03T01:13:36.345Z,971.89
2022-10-03T01:14:36.358Z,971.86
2022-10-03T01:15:36.329Z,971.82
2022-10-03T01:16:36.296Z,971.87
2022-10-03T01:17:36.278Z,971.88
2022-10-03T01:18:36.269Z,971.86
2022-10-03T01:19:36.315Z,971.83
2022-10-03T01:20:36.259Z,971.83
2022-10-03T01:21:36.348Z,971.86
2022-10-03T01:22:36.223Z,971.81
2022-10-03T01:23:36.213Z,971.81
2022-10-03T01:24:36.238Z,971.83
2022-10-03T01:25:36.208Z,971.83
2022-10-03T01:26:36.197Z,971.80
2022-10-03T01:27:36.197Z,971.88
2022-10-03T01:28:36.204Z,971.84
2022-10-03T01:29:36.149Z,971.89
2022-10-03T01:30:36.152Z,971.86
2022-10-03T01:31:36.256Z,971.86
2022-10-03T01:32:36.134Z,971.79
2022-10-03T01:33:36.130Z,971.84
2022-10-03T01:34:36.140Z,971.89
2022-10-03T01:35:36.084Z,971.86
2022-10-03T01:36:36.095Z,971.90
2022-10-03T01:37:36.071Z,971.96
2022-10-03T01:38:36.063Z,971.92
2022-10-03T01:39:36.082Z,971.90
2022-10-03T01:40:36.022Z,971.91
2022-10-03T01:41:36.036Z,971.90
2022-10-03T01:42:36.001Z,971.94
2022-10-03T01:43:36.003Z,971.98
2022-10-03T01:44:35.996Z,971.92
2022-10-03T01:45:36.041Z,971.98
2022-10-03T01:46:36.038Z,972.01
2022-10-03T01:47:35.964Z,971.93
2022-10-03T01:48:35.948Z,972.03
2022-10-03T01:49:35.939Z,971.94
2022-10-03T01:50:35.950Z,971.99
2022-10-03T01:51:35.983Z,971.97
2022-10-03T01:52:35.886Z,971.99
2022-10-03T01:53:35.875Z,972.03
2022-10-03T01:54:35.876Z,972.08
2022-10-03T01:55:35.881Z,972.06
2022-10-03T01:56:35.841Z,972.12
2022-10-03T01:57:35.847Z,972.10
2022-10-03T01:58:35.823Z,972.13
2022-10-03T01:59:35.812Z,972.23
2022-10-03T02:00:35.916Z,972.18
2022-10-03T02:01:36.048Z,972.17
2022-10-03T02:02:35.776Z,972.21
2022-10-03T02:03:35.783Z,972.23
2022-10-03T02:04:35.765Z,972.20
2022-10-03T02:05:35.788Z,972.26
2022-10-03T02:06:35.760Z,972.26
2022-10-03T02:07:35.717Z,972.33
2022-10-03T02:08:35.708Z,972.30
2022-10-03T02:09:35.708Z,972.28
2022-10-03T02:10:35.689Z,972.29
2022-10-03T02:11:35.718Z,972.29
2022-10-03T02:12:35.714Z,972.33
2022-10-03T02:13:35.650Z,972.33
2022-10-03T02:14:35.651Z,972.33
2022-10-03T02:15:35.649Z,972.28
2022-10-03T02:16:35.763Z,972.29
2022-10-03T02:17:35.629Z,972.27
2022-10-03T02:18:35.624Z,972.29
2022-10-03T02:19:35.583Z,972.27
2022-10-03T02:20:35.576Z,972.28
2022-10-03T02:21:35.603Z,972.29
2022-10-03T02:22:35.555Z,972.29
2022-10-03T02:23:35.554Z,972.31
2022-10-03T02:24:35.528Z,972.28
2022-10-03T02:25:35.514Z,972.24
2022-10-03T02:26:35.541Z,972.27
2022-10-03T02:27:35.496Z,972.28
2022-10-03T02:28:35.502Z,972.24
2022-10-03T02:29:35.496Z,972.31
2022-10-03T02:30:35.465Z,972.26
2022-10-03T02:31:35.597Z,972.29
2022-10-03T02:32:35.494Z,972.26
2022-10-03T02:33:35.430Z,972.22
2022-10-03T02:34:35.436Z,972.25
2022-10-03T02:35:35.441Z,972.23
2022-10-03T02:36:35.394Z,972.24
2022-10-03T02:37:35.808Z,972.29
2022-10-03T02:38:35.407Z,972.28
2022-10-03T02:39:35.396Z,972.27
2022-10-03T02:40:35.377Z,972.30
2022-10-03T02:41:35.336Z,972.30
2022-10-03T02:42:35.342Z,972.29
2022-10-03T02:43:35.312Z,972.29
2022-10-03T02:44:35.333Z,972.28
2022-10-03T02:45:35.327Z,972.28
2022-10-03T02:46:35.309Z,972.27
2022-10-03T02:47:35.270Z,972.30
2022-10-03T02:48:35.290Z,972.30
2022-10-03T02:49:35.249Z,972.29
2022-10-03T02:50:35.255Z,972.33
2022-10-03T02:51:35.245Z,972.25
2022-10-03T02:52:35.258Z,972.33
2022-10-03T02:53:35.204Z,972.38
2022-10-03T02:54:35.302Z,972.37
2022-10-03T02:55:35.190Z,972.33
2022-10-03T02:56:35.179Z,972.38
2022-10-03T02:57:35.184Z,972.37
2022-10-03T02:58:35.147Z,972.44
2022-10-03T02:59:35.145Z,972.40
2022-10-03T03:00:35.195Z,972.43
2022-10-03T03:01:35.135Z,972.42
2022-10-03T03:02:35.173Z,972.44
2022-10-03T03:03:35.128Z,972.44
2022-10-03T03:04:35.095Z,972.50
2022-10-03T03:05:35.082Z,972.45
2022-10-03T03:06:35.063Z,972.45
2022-10-03T03:07:35.051Z,972.44
2022-10-03T03:08:35.061Z,972.47
2022-10-03T03:09:35.022Z,972.48
2022-10-03T03:10:35.024Z,972.45
2022-10-03T03:11:35.022Z,972.45
2022-10-03T03:12:39.165Z,972.53
2022-10-03T03:13:35.996Z,972.49
2022-10-03T03:14:35.001Z,972.51
2022-10-03T03:15:34.956Z,972.54
2022-10-03T03:16:35.014Z,972.55
2022-10-03T03:17:34.944Z,972.52
2022-10-03T03:18:34.937Z,972.52
2022-10-03T03:19:34.927Z,972.54
2022-10-03T03:20:35.028Z,972.50
2022-10-03T03:21:34.942Z,972.52
2022-10-03T03:22:34.875Z,972.52
2022-10-03T03:23:34.873Z,972.61
2022-10-03T03:24:34.863Z,972.62
2022-10-03T03:25:34.865Z,972.61
2022-10-03T03:26:34.838Z,972.61
2022-10-03T03:27:34.829Z,972.65
2022-10-03T03:28:34.809Z,972.66
2022-10-03T03:29:34.840Z,972.68
2022-10-03T03:30:34.803Z,972.67
2022-10-03T03:31:34.886Z,972.65
2022-10-03T03:32:34.762Z,972.69
2022-10-03T03:33:34.781Z,972.66
2022-10-03T03:34:34.777Z,972.67
2022-10-03T03:35:34.765Z,972.68
2022-10-03T03:36:34.756Z,972.69
2022-10-03T03:37:34.727Z,972.70
2022-10-03T03:38:34.698Z,972.71
2022-10-03T03:39:34.695Z,972.72
2022-10-03T03:40:34.711Z,972.69
2022-10-03T03:41:34.669Z,972.67
2022-10-03T03:42:34.675Z,972.67
2022-10-03T03:43:34.685Z,972.68
2022-10-03T03:44:34.638Z,972.70
2022-10-03T03:45:34.675Z,972.72
2022-10-03T03:46:34.631Z,972.75
2022-10-03T03:47:34.605Z,972.74
2022-10-03T03:48:34.583Z,972.78
2022-10-03T03:49:34.572Z,972.72
2022-10-03T03:50:34.567Z,972.75
2022-10-03T03:51:34.593Z,972.73
2022-10-03T03:52:34.560Z,972.75
2022-10-03T03:53:34.550Z,972.71
2022-10-03T03:54:34.545Z,972.81
2022-10-03T03:55:34.520Z,972.74
2022-10-03T03:56:34.516Z,972.78
2022-10-03T03:57:34.504Z,972.79
2022-10-03T03:58:34.479Z,972.79
2022-10-03T03:59:34.475Z,972.83
2022-10-03T04:00:34.452Z,972.82
2022-10-03T04:01:34.515Z,972.82
2022-10-03T04:02:34.522Z,972.87
2022-10-03T04:03:34.427Z,972.88
2022-10-03T04:04:34.440Z,972.87
2022-10-03T04:05:34.426Z,972.91
2022-10-03T04:06:34.382Z,972.94
2022-10-03T04:07:34.389Z,972.94
2022-10-03T04:08:34.378Z,972.86
2022-10-03T04:09:34.364Z,972.86
2022-10-03T04:10:34.355Z,972.91
2022-10-03T04:11:34.366Z,972.83
2022-10-03T04:12:34.314Z,972.89
2022-10-03T04:13:34.328Z,972.93
2022-10-03T04:14:34.296Z,972.90
2022-10-03T04:15:34.333Z,972.97
2022-10-03T04:16:34.395Z,972.90
2022-10-03T04:17:34.259Z,972.95
2022-10-03T04:18:34.261Z,972.95
2022-10-03T04:19:34.237Z,972.99
2022-10-03T04:20:34.247Z,972.97
2022-10-03T04:21:34.235Z,972.99
2022-10-03T04:22:34.234Z,972.98
2022-10-03T04:23:34.193Z,972.98
2022-10-03T04:24:34.196Z,973.01
2022-10-03T04:25:34.176Z,973.01
2022-10-03T04:26:34.168Z,972.96
2022-10-03T04:27:34.175Z,972.99
2022-10-03T04:28:34.363Z,972.99
2022-10-03T04:29:34.213Z,972.99
2022-10-03T04:30:34.112Z,972.95
2022-10-03T04:31:34.192Z,972.96
2022-10-03T04:32:34.100Z,972.97
2022-10-03T04:33:34.095Z,972.92
2022-10-03T04:34:34.104Z,972.91
2022-10-03T04:35:34.074Z,972.99
2022-10-03T04:36:34.081Z,972.92
2022-10-03T04:37:34.039Z,972.94
2022-10-03T04:38:34.035Z,972.88
2022-10-03T04:39:34.045Z,972.96
2022-10-03T04:40:34.020Z,972.98
2022-10-03T04:41:33.994Z,972.94
2022-10-03T04:42:33.999Z,972.94
2022-10-03T04:43:33.972Z,972.92
2022-10-03T04:44:33.973Z,972.95
2022-10-03T04:45:34.022Z,972.97
2022-10-03T04:46:33.950Z,972.95
2022-10-03T04:47:33.953Z,973.03
2022-10-03T04:48:33.928Z,972.96
2022-10-03T04:49:33.917Z,972.98
2022-10-03T04:50:33.905Z,972.94
2022-10-03T04:51:33.876Z,972.89
2022-10-03T04:52:33.887Z,972.94
2022-10-03T04:53:33.887Z,972.89
2022-10-03T04:54:33.851Z,972.92
2022-10-03T04:55:33.846Z,972.96
2022-10-03T04:56:33.846Z,972.86
2022-10-03T04:57:33.809Z,972.87
2022-10-03T04:58:33.796Z,972.88
2022-10-03T04:59:33.809Z,972.87
2022-10-03T05:00:33.784Z,972.90
2022-10-03T05:01:33.797Z,972.94
2022-10-03T05:02:33.930Z,972.86
2022-10-03T05:03:33.746Z,972.88
2022-10-03T05:04:33.754Z,972.89
2022-10-03T05:05:33.721Z,972.88
2022-10-03T05:06:33.722Z,972.90
2022-10-03T05:07:33.713Z,972.89
2022-10-03T05:08:33.730Z,972.85
2022-10-03T05:09:33.674Z,972.94
2022-10-03T05:10:33.665Z,972.87
2022-10-03T05:11:33.673Z,972.89
2022-10-03T05:12:33.679Z,972.89
2022-10-03T05:13:33.630Z,972.91
2022-10-03T05:14:33.620Z,972.93
2022-10-03T05:15:33.610Z,972.90
2022-10-03T05:16:33.662Z,972.87
2022-10-03T05:17:33.622Z,972.88
2022-10-03T05:18:33.599Z,972.92
2022-10-03T05:19:33.605Z,972.97
2022-10-03T05:20:33.566Z,972.96
2022-10-03T05:21:33.540Z,972.91
2022-10-03T05:22:33.555Z,972.94
2022-10-03T05:23:33.533Z,972.91
2022-10-03T05:24:33.538Z,972.95
2022-10-03T05:25:33.504Z,973.02
2022-10-03T05:26:45.191Z,973.00
2022-10-03T05:27:34.480Z,973.04
2022-10-03T05:28:33.644Z,973.03
2022-10-03T05:29:33.468Z,973.01
2022-10-03T05:30:33.476Z,973.03
2022-10-03T05:31:33.502Z,972.99
2022-10-03T05:32:33.415Z,973.04
2022-10-03T05:33:33.415Z,973.05
2022-10-03T05:34:33.430Z,973.10
2022-10-03T05:35:33.407Z,973.12
2022-10-03T05:36:33.403Z,973.07
2022-10-03T05:37:33.362Z,973.11
2022-10-03T05:38:33.349Z,973.12
2022-10-03T05:39:33.369Z,973.07
2022-10-03T05:40:33.335Z,973.11
2022-10-03T05:41:33.356Z,973.13
2022-10-03T05:42:33.347Z,973.14
2022-10-03T05:43:33.318Z,973.10
2022-10-03T05:44:33.416Z,973.14
2022-10-03T05:45:33.324Z,973.14
2022-10-03T05:46:33.280Z,973.12
2022-10-03T05:47:33.270Z,973.15
2022-10-03T05:48:33.278Z,973.20
2022-10-03T05:49:33.237Z,973.17
2022-10-03T05:50:33.224Z,973.24
2022-10-03T05:51:33.212Z,973.21
2022-10-03T05:52:33.213Z,973.24
2022-10-03T05:53:33.225Z,973.20
2022-10-03T05:54:33.176Z,973.23
2022-10-03T05:55:33.163Z,973.26
2022-10-03T05:56:36.582Z,973.27
2022-10-03T05:57:34.141Z,973.28
2022-10-03T05:58:33.147Z,973.31
2022-10-03T05:59:33.148Z,973.29
2022-10-03T06:00:33.124Z,973.33
2022-10-03T06:01:33.151Z,973.36
2022-10-03T06:02:33.201Z,973.44
2022-10-03T06:03:33.179Z,973.40
2022-10-03T06:04:33.093Z,973.35
2022-10-03T06:05:33.071Z,973.40
2022-10-03T06:06:33.048Z,973.43
2022-10-03T06:07:33.051Z,973.43
2022-10-03T06:08:33.028Z,973.40
2022-10-03T06:09:33.025Z,973.41
2022-10-03T06:10:32.995Z,973.43
2022-10-03T06:11:32.980Z,973.41
2022-10-03T06:12:32.976Z,973.48
2022-10-03T06:13:32.989Z,973.51
2022-10-03T06:14:32.954Z,973.52
2022-10-03T06:15:32.965Z,973.45
2022-10-03T06:16:33.053Z,973.43
2022-10-03T06:17:32.913Z,973.51
2022-10-03T06:18:32.914Z,973.48
2022-10-03T06:19:32.921Z,973.50
2022-10-03T06:20:32.905Z,973.50
2022-10-03T06:21:32.965Z,973.53
2022-10-03T06:22:32.856Z,973.56
2022-10-03T06:23:32.845Z,973.56
2022-10-03T06:24:32.845Z,973.55
2022-10-03T06:25:32.864Z,973.56
2022-10-03T06:26:32.823Z,973.61
2022-10-03T06:27:32.843Z,973.61
2022-10-03T06:28:32.902Z,973.58
2022-10-03T06:29:32.778Z,973.60
2022-10-03T06:30:32.846Z,973.66
2022-10-03T06:31:32.837Z,973.60
2022-10-03T06:32:32.782Z,973.64
2022-10-03T06:33:32.742Z,973.63
2022-10-03T06:34:32.720Z,973.70
2022-10-03T06:35:32.715Z,973.64
2022-10-03T06:36:40.702Z,973.72
2022-10-03T06:37:32.706Z,973.73
2022-10-03T06:38:32.702Z,973.72
2022-10-03T06:39:32.667Z,973.69
2022-10-03T06:40:32.668Z,973.68
2022-10-03T06:41:32.645Z,973.75
2022-10-03T06:42:32.638Z,973.73
2022-10-03T06:43:32.652Z,973.73
2022-10-03T06:44:32.684Z,973.73
2022-10-03T06:45:32.605Z,973.80
2022-10-03T06:46:32.627Z,973.72
2022-10-03T06:47:32.603Z,973.76
2022-10-03T06:48:32.595Z,973.84
2022-10-03T06:49:32.579Z,973.81
2022-10-03T06:50:32.545Z,973.77
2022-10-03T06:51:32.530Z,973.82
2022-10-03T06:52:32.548Z,973.80
2022-10-03T06:53:32.515Z,973.78
2022-10-03T06:54:32.525Z,973.80
2022-10-03T06:55:32.495Z,973.82
2022-10-03T06:56:32.481Z,973.81
2022-10-03T06:57:32.464Z,973.84
2022-10-03T06:58:32.480Z,973.86
2022-10-03T06:59:32.448Z,973.82
2022-10-03T07:00:32.452Z,973.86
2022-10-03T07:01:32.522Z,973.85
2022-10-03T07:02:32.544Z,973.81
2022-10-03T07:03:32.398Z,973.81
2022-10-03T07:04:32.405Z,973.85
2022-10-03T07:05:32.391Z,973.86
2022-10-03T07:06:32.398Z,973.86
2022-10-03T07:07:32.397Z,973.90
2022-10-03T07:08:32.360Z,973.93
2022-10-03T07:09:32.348Z,973.95
2022-10-03T07:10:32.321Z,973.90
2022-10-03T07:11:32.328Z,973.88
2022-10-03T07:12:32.301Z,973.90
2022-10-03T07:13:32.332Z,973.91
2022-10-03T07:14:32.282Z,973.84
2022-10-03T07:15:57.910Z,973.94
2022-10-03T07:16:33.334Z,973.95
2022-10-03T07:17:32.250Z,973.94
2022-10-03T07:18:32.267Z,973.91
2022-10-03T07:19:32.224Z,973.93
2022-10-03T07:20:32.225Z,973.91
2022-10-03T07:21:32.211Z,973.88
2022-10-03T07:22:32.201Z,973.90
2022-10-03T07:23:32.200Z,973.89
2022-10-03T07:24:32.199Z,973.89
2022-10-03T07:25:32.150Z,973.92
2022-10-03T07:26:32.147Z,973.96
2022-10-03T07:27:32.150Z,973.88
2022-10-03T07:28:32.249Z,974.00
2022-10-03T07:29:32.135Z,973.97
2022-10-03T07:30:32.095Z,973.97
2022-10-03T07:31:32.172Z,974.04
2022-10-03T07:32:32.091Z,973.99
2022-10-03T07:33:36.625Z,974.00
2022-10-03T07:34:33.091Z,974.02
2022-10-03T07:35:32.072Z,974.02
2022-10-03T07:36:32.049Z,974.05
2022-10-03T07:37:32.037Z,974.01
2022-10-03T07:38:32.007Z,974.12
2022-10-03T07:39:32.015Z,974.04
2022-10-03T07:40:32.003Z,974.05
2022-10-03T07:41:31.970Z,974.06
2022-10-03T07:42:31.969Z,974.05
2022-10-03T07:43:31.949Z,974.01
2022-10-03T07:44:31.940Z,973.98
2022-10-03T07:45:31.957Z,974.01
2022-10-03T07:46:31.983Z,974.09
2022-10-03T07:47:31.904Z,974.05
2022-10-03T07:48:31.896Z,974.08
2022-10-03T07:49:31.906Z,974.05
2022-10-03T07:50:31.876Z,974.07
2022-10-03T07:51:31.896Z,974.09
2022-10-03T07:52:31.918Z,974.11
2022-10-03T07:53:31.836Z,974.06
2022-10-03T07:54:31.827Z,974.05
2022-10-03T07:55:31.821Z,974.10
2022-10-03T07:56:31.814Z,974.08
2022-10-03T07:57:31.828Z,974.08
2022-10-03T07:58:31.790Z,974.13
2022-10-03T07:59:31.774Z,974.09
2022-10-03T08:00:31.760Z,974.03
2022-10-03T08:01:31.749Z,974.06
2022-10-03T08:02:31.808Z,974.08
2022-10-03T08:03:31.859Z,974.10
2022-10-03T08:04:31.714Z,974.09
2022-10-03T08:05:31.702Z,974.07
2022-10-03T08:06:31.707Z,974.15
2022-10-03T08:07:31.691Z,974.07
2022-10-03T08:08:31.715Z,974.13
2022-10-03T08:09:31.656Z,974.11
2022-10-03T08:10:31.646Z,974.11
2022-10-03T08:11:31.633Z,974.11
2022-10-03T08:12:31.640Z,974.15
2022-10-03T08:13:31.633Z,974.15
2022-10-03T08:14:31.643Z,974.18
2022-10-03T08:15:31.686Z,974.20
2022-10-03T08:16:31.576Z,974.21
2022-10-03T08:17:31.580Z,974.22
2022-10-03T08:18:31.560Z,974.25
2022-10-03T08:19:31.558Z,974.25
2022-10-03T08:20:31.581Z,974.26
2022-10-03T08:21:31.523Z,974.27
2022-10-03T08:22:31.543Z,974.23
2022-10-03T08:23:31.514Z,974.28
2022-10-03T08:24:31.602Z,974.35
2022-10-03T08:25:31.497Z,974.33
2022-10-03T08:26:31.473Z,974.32
2022-10-03T08:27:31.452Z,974.33
2022-10-03T08:28:31.549Z,974.40
2022-10-03T08:29:31.447Z,974.42
2022-10-03T08:30:31.443Z,974.40
2022-10-03T08:31:31.449Z,974.40
2022-10-03T08:32:31.407Z,974.38
2022-10-03T08:33:31.385Z,974.36
2022-10-03T08:34:31.389Z,974.36
2022-10-03T08:35:31.373Z,974.39
2022-10-03T08:36:31.486Z,974.38
2022-10-03T08:37:31.340Z,974.31
2022-10-03T08:38:31.336Z,974.29
2022-10-03T08:39:31.316Z,974.32
2022-10-03T08:40:31.362Z,974.31
2022-10-03T08:41:31.313Z,974.42
2022-10-03T08:42:31.318Z,974.30
2022-10-03T08:43:31.312Z,974.41
2022-10-03T08:44:31.267Z,974.46
2022-10-03T08:45:31.270Z,974.40
2022-10-03T08:46:31.317Z,974.42
2022-10-03T08:47:31.251Z,974.46
2022-10-03T08:48:31.259Z,974.45
2022-10-03T08:49:31.201Z,974.47
2022-10-03T08:50:31.267Z,974.51
2022-10-03T08:51:31.204Z,974.50
2022-10-03T08:52:31.181Z,974.51
2022-10-03T08:53:31.232Z,974.53
2022-10-03T08:54:31.147Z,974.51
2022-10-03T08:55:31.176Z,974.49
2022-10-03T08:56:31.207Z,974.53
2022-10-03T08:57:31.142Z,974.45
2022-10-03T08:58:31.151Z,974.50
2022-10-03T08:59:31.128Z,974.48
2022-10-03T09:00:31.077Z,974.50
2022-10-03T09:01:31.135Z,974.48
2022-10-03T09:02:31.317Z,974.50
2022-10-03T09:03:36.577Z,974.49
2022-10-03T09:04:32.033Z,974.55
2022-10-03T09:05:31.019Z,974.50
2022-10-03T09:06:31.056Z,974.48
2022-10-03T09:07:30.997Z,974.49
2022-10-03T09:08:31.010Z,974.43
2022-10-03T09:09:35.658Z,974.42
2022-10-03T09:10:31.964Z,974.40
2022-10-03T09:11:30.950Z,974.42
2022-10-03T09:12:30.966Z,974.43
2022-10-03T09:13:30.928Z,974.46
2022-10-03T09:14:30.955Z,974.42
2022-10-03T09:15:30.934Z,974.47
2022-10-03T09:16:30.953Z,974.44
2022-10-03T09:17:30.882Z,974.48
2022-10-03T09:18:30.880Z,974.48
2022-10-03T09:19:30.895Z,974.48
2022-10-03T09:20:30.900Z,974.46
2022-10-03T09:21:33.774Z,974.47
2022-10-03T09:22:31.833Z,974.46
2022-10-03T09:23:30.814Z,974.40
2022-10-03T09:24:30.808Z,974.43
2022-10-03T09:25:30.833Z,974.43
2022-10-03T09:26:30.807Z,974.45
2022-10-03T09:27:30.808Z,974.49
2022-10-03T09:28:30.834Z,974.54
2022-10-03T09:29:30.747Z,974.51
2022-10-03T09:30:30.743Z,974.51
2022-10-03T09:31:30.838Z,974.51
2022-10-03T09:32:30.744Z,974.49
2022-10-03T09:33:30.763Z,974.49
2022-10-03T09:34:30.693Z,974.51
2022-10-03T09:35:30.683Z,974.51
2022-10-03T09:36:30.681Z,974.49
2022-10-03T09:37:30.681Z,974.49
2022-10-03T09:38:30.671Z,974.54
2022-10-03T09:39:30.682Z,974.56
2022-10-03T09:40:30.626Z,974.49
2022-10-03T09:41:30.626Z,974.49
2022-10-03T09:42:30.642Z,974.51
2022-10-03T09:43:30.597Z,974.51
2022-10-03T09:44:30.624Z,974.47
2022-10-03T09:45:30.574Z,974.53
2022-10-03T09:46:30.622Z,974.51
2022-10-03T09:47:30.555Z,974.48
2022-10-03T09:48:30.550Z,974.52
2022-10-03T09:49:30.532Z,974.46
2022-10-03T09:50:30.511Z,974.47
2022-10-03T09:51:30.503Z,974.46
2022-10-03T09:52:30.497Z,974.45
2022-10-03T09:53:30.516Z,974.43
2022-10-03T09:54:30.478Z,974.44
2022-10-03T09:55:30.478Z,974.43
2022-10-03T09:56:30.481Z,974.44
2022-10-03T09:57:30.438Z,974.41
2022-10-03T09:58:30.421Z,974.34
2022-10-03T09:59:30.415Z,974.39
2022-10-03T10:00:30.491Z,974.41
2022-10-03T10:01:30.384Z,974.39
2022-10-03T10:02:30.382Z,974.44
2022-10-03T10:03:30.500Z,974.45
2022-10-03T10:04:52.963Z,974.41
2022-10-03T10:05:31.337Z,974.47
2022-10-03T10:06:30.360Z,974.42
2022-10-03T10:07:30.358Z,974.42
2022-10-03T10:08:30.306Z,974.44
2022-10-03T10:09:30.326Z,974.47
2022-10-03T10:10:30.323Z,974.44
2022-10-03T10:11:34.909Z,974.43
2022-10-03T10:12:31.259Z,974.39
2022-10-03T10:13:44.245Z,974.41
2022-10-03T10:14:31.273Z,974.37
2022-10-03T10:15:30.250Z,974.37
2022-10-03T10:16:30.353Z,974.33
2022-10-03T10:17:30.223Z,974.32
2022-10-03T10:18:30.231Z,974.34
2022-10-03T10:19:30.178Z,974.30
2022-10-03T10:20:30.172Z,974.32
2022-10-03T10:21:30.191Z,974.30
2022-10-03T10:22:30.171Z,974.33
2022-10-03T10:23:30.169Z,974.33
2022-10-03T10:24:30.122Z,974.31
2022-10-03T10:25:30.112Z,974.29
2022-10-03T10:26:30.117Z,974.31
2022-10-03T10:27:30.104Z,974.31
2022-10-03T10:28:30.288Z,974.33
2022-10-03T10:29:30.098Z,974.34
2022-10-03T10:30:30.071Z,974.34
2022-10-03T10:31:30.178Z,974.32
2022-10-03T10:32:30.152Z,974.38
2022-10-03T10:33:30.048Z,974.39
2022-10-03T10:34:30.055Z,974.37
2022-10-03T10:35:29.995Z,974.35
2022-10-03T10:36:29.985Z,974.33
2022-10-03T10:37:29.999Z,974.34
2022-10-03T10:38:29.977Z,974.35
2022-10-03T10:39:29.985Z,974.29
2022-10-03T10:40:29.983Z,974.34
2022-10-03T10:41:29.925Z,974.34
2022-10-03T10:42:29.938Z,974.31
2022-10-03T10:43:29.913Z,974.32
2022-10-03T10:44:29.910Z,974.30
2022-10-03T10:45:29.907Z,974.30
2022-10-03T10:46:29.971Z,974.33
2022-10-03T10:47:29.881Z,974.37
2022-10-03T10:48:29.866Z,974.36
2022-10-03T10:49:29.849Z,974.30
2022-10-03T10:50:29.857Z,974.27
2022-10-03T10:51:29.910Z,974.26
2022-10-03T10:52:29.840Z,974.26
2022-10-03T10:53:29.800Z,974.32
2022-10-03T10:54:29.794Z,974.27
2022-10-03T10:55:29.819Z,974.29
2022-10-03T10:56:29.782Z,974.27
2022-10-03T10:57:29.743Z,974.27
2022-10-03T10:58:29.740Z,974.24
2022-10-03T10:59:29.758Z,974.29
2022-10-03T11:00:29.816Z,974.30
2022-10-03T11:01:29.715Z,974.27
2022-10-03T11:02:29.724Z,974.33
2022-10-03T11:03:29.676Z,974.31
2022-10-03T11:04:29.726Z,974.30
2022-10-03T11:05:29.716Z,974.31
2022-10-03T11:06:29.658Z,974.29
2022-10-03T11:07:29.634Z,974.28
2022-10-03T11:08:29.618Z,974.30
2022-10-03T11:09:29.605Z,974.32
2022-10-03T11:10:29.619Z,974.34
2022-10-03T11:11:29.597Z,974.29
2022-10-03T11:12:29.584Z,974.32
2022-10-03T11:13:34.813Z,974.33
2022-10-03T11:14:30.549Z,974.30
2022-10-03T11:15:29.561Z,974.26
2022-10-03T11:16:29.647Z,974.24
2022-10-03T11:17:29.558Z,974.28
2022-10-03T11:18:29.532Z,974.26
2022-10-03T11:19:29.526Z,974.29
2022-10-03T11:20:29.496Z,974.29
2022-10-03T11:21:29.469Z,974.31
2022-10-03T11:22:29.471Z,974.34
2022-10-03T11:23:29.467Z,974.30
2022-10-03T11:24:29.471Z,974.29
2022-10-03T11:25:29.422Z,974.34
2022-10-03T11:26:29.411Z,974.35
2022-10-03T11:27:29.443Z,974.31
2022-10-03T11:28:29.476Z,974.38
2022-10-03T11:29:29.412Z,974.40
2022-10-03T11:30:29.407Z,974.33
2022-10-03T11:31:29.393Z,974.32
2022-10-03T11:32:29.360Z,974.31
2022-10-03T11:33:29.357Z,974.33
2022-10-03T11:34:29.340Z,974.35
2022-10-03T11:35:29.345Z,974.29
2022-10-03T11:36:29.318Z,974.28
2022-10-03T11:37:29.290Z,974.29
2022-10-03T11:38:29.275Z,974.27
2022-10-03T11:39:29.305Z,974.22
2022-10-03T11:40:29.277Z,974.22
2022-10-03T11:41:29.273Z,974.22
2022-10-03T11:42:29.233Z,974.26
2022-10-03T11:43:29.220Z,974.21
2022-10-03T11:44:29.240Z,974.26
2022-10-03T11:45:29.273Z,974.22
2022-10-03T11:46:29.205Z,974.23
2022-10-03T11:47:29.175Z,974.22
2022-10-03T11:48:29.165Z,974.23
2022-10-03T11:49:29.157Z,974.24
2022-10-03T11:50:29.174Z,974.24
2022-10-03T11:51:29.154Z,974.22
2022-10-03T11:52:29.133Z,974.18
2022-10-03T11:53:29.110Z,974.18
2022-10-03T11:54:31.840Z,974.17
2022-10-03T11:55:29.098Z,974.20
2022-10-03T11:56:29.120Z,974.19
2022-10-03T11:57:29.077Z,974.19
2022-10-03T11:58:29.088Z,974.26
2022-10-03T11:59:29.054Z,974.23
2022-10-03T12:00:29.024Z,974.29
2022-10-03T12:01:29.016Z,974.17
2022-10-03T12:02:29.119Z,974.23
2022-10-03T12:03:29.121Z,974.19
2022-10-03T12:04:29.029Z,974.23
2022-10-03T12:05:28.970Z,974.18
2022-10-03T12:06:28.985Z,974.18
2022-10-03T12:07:28.947Z,974.24
2022-10-03T12:08:29.039Z,974.27
2022-10-03T12:09:28.923Z,974.23
2022-10-03T12:10:28.908Z,974.19
2022-10-03T12:11:28.898Z,974.16
2022-10-03T12:12:28.926Z,974.17
2022-10-03T12:13:28.878Z,974.16
2022-10-03T12:14:28.905Z,974.10
2022-10-03T12:15:28.857Z,974.09
2022-10-03T12:16:28.884Z,974.09
2022-10-03T12:17:28.856Z,974.03
2022-10-03T12:18:28.848Z,974.01
2022-10-03T12:19:28.835Z,974.01
2022-10-03T12:20:28.823Z,974.10
2022-10-03T12:21:28.783Z,974.04
2022-10-03T12:22:28.772Z,974.01
2022-10-03T12:23:28.764Z,974.07
2022-10-03T12:24:28.897Z,974.07
2022-10-03T12:25:28.770Z,974.02
2022-10-03T12:26:28.734Z,974.04
2022-10-03T12:27:28.720Z,973.95
2022-10-03T12:28:28.803Z,973.98